sensor_id;sensor_type;location;lat;lon;timestamp;P1;durP1;ratioP1;P2;durP2;ratioP2
74044;SDS011;62389;51.412;5.436;2022-12-07T00:01:38;11.73;;;8.48;;
74044;SDS011;62389;51.412;5.436;2022-12-07T00:04:06;14.10;;;7.78;;
74044;SDS011;62389;51.412;5.436;2022-12-07T00:09:14;13.07;;;7.85;;
74044;SDS011;62389;51.412;5.436;2022-12-07T00:11:41;13.25;;;7.97;;
74044;SDS011;62389;51.412;5.436;2022-12-07T00:14:09;10.15;;;7.50;;
74044;SDS011;62389;51.412;5.436;2022-12-07T00:16:36;13.50;;;7.75;;
74044;SDS011;62389;51.412;5.436;2022-12-07T00:19:02;12.48;;;6.72;;
74044;SDS011;62389;51.412;5.436;2022-12-07T00:21:30;14.63;;;8.20;;
74044;SDS011;62389;51.412;5.436;2022-12-07T00:23:57;12.20;;;8.00;;
74044;SDS011;62389;51.412;5.436;2022-12-07T00:26:24;15.05;;;8.55;;
74044;SDS011;62389;51.412;5.436;2022-12-07T00:28:52;13.05;;;8.07;;
74044;SDS011;62389;51.412;5.436;2022-12-07T00:31:20;13.18;;;8.98;;
74044;SDS011;62389;51.412;5.436;2022-12-07T00:33:47;14.63;;;9.65;;
74044;SDS011;62389;51.412;5.436;2022-12-07T00:36:14;12.82;;;9.13;;
74044;SDS011;62389;51.412;5.436;2022-12-07T00:38:42;15.25;;;9.63;;
74044;SDS011;62389;51.412;5.436;2022-12-07T00:41:12;17.00;;;10.95;;
74044;SDS011;62389;51.412;5.436;2022-12-07T00:43:43;15.65;;;10.50;;
74044;SDS011;62389;51.412;5.436;2022-12-07T00:46:10;14.43;;;9.23;;
74044;SDS011;62389;51.412;5.436;2022-12-07T00:48:36;12.93;;;7.75;;
74044;SDS011;62389;51.412;5.436;2022-12-07T00:51:02;15.40;;;7.68;;
74044;SDS011;62389;51.412;5.436;2022-12-07T00:53:28;11.35;;;7.32;;
74044;SDS011;62389;51.412;5.436;2022-12-07T00:55:54;11.90;;;7.22;;
74044;SDS011;62389;51.412;5.436;2022-12-07T00:58:21;9.30;;;6.93;;
74044;SDS011;62389;51.412;5.436;2022-12-07T01:00:47;13.18;;;7.65;;
74044;SDS011;62389;51.412;5.436;2022-12-07T01:03:13;9.85;;;6.72;;
74044;SDS011;62389;51.412;5.436;2022-12-07T01:05:40;14.55;;;7.20;;
74044;SDS011;62389;51.412;5.436;2022-12-07T01:08:13;13.25;;;8.10;;
74044;SDS011;62389;51.412;5.436;2022-12-07T01:10:38;11.60;;;8.02;;
74044;SDS011;62389;51.412;5.436;2022-12-07T01:13:03;11.68;;;7.47;;
74044;SDS011;62389;51.412;5.436;2022-12-07T01:15:29;16.15;;;8.38;;
74044;SDS011;62389;51.412;5.436;2022-12-07T01:17:54;14.80;;;8.13;;
74044;SDS011;62389;51.412;5.436;2022-12-07T01:20:19;16.33;;;8.88;;
74044;SDS011;62389;51.412;5.436;2022-12-07T01:22:45;10.85;;;7.60;;
74044;SDS011;62389;51.412;5.436;2022-12-07T01:25:10;12.32;;;8.88;;
74044;SDS011;62389;51.412;5.436;2022-12-07T01:27:37;11.95;;;8.35;;
74044;SDS011;62389;51.412;5.436;2022-12-07T01:30:03;12.15;;;7.97;;
74044;SDS011;62389;51.412;5.436;2022-12-07T01:32:30;10.95;;;7.55;;
74044;SDS011;62389;51.412;5.436;2022-12-07T01:34:55;11.48;;;7.30;;
74044;SDS011;62389;51.412;5.436;2022-12-07T01:37:21;10.50;;;6.50;;
74044;SDS011;62389;51.412;5.436;2022-12-07T01:39:50;10.38;;;7.25;;
74044;SDS011;62389;51.412;5.436;2022-12-07T01:42:16;12.15;;;7.85;;
74044;SDS011;62389;51.412;5.436;2022-12-07T01:47:52;10.55;;;7.55;;
74044;SDS011;62389;51.412;5.436;2022-12-07T01:50:20;12.88;;;7.57;;
74044;SDS011;62389;51.412;5.436;2022-12-07T01:52:49;11.43;;;7.28;;
74044;SDS011;62389;51.412;5.436;2022-12-07T01:55:17;13.32;;;7.80;;
74044;SDS011;62389;51.412;5.436;2022-12-07T01:57:45;12.48;;;7.32;;
74044;SDS011;62389;51.412;5.436;2022-12-07T02:00:14;12.80;;;7.03;;
74044;SDS011;62389;51.412;5.436;2022-12-07T02:02:42;9.10;;;6.55;;
74044;SDS011;62389;51.412;5.436;2022-12-07T02:05:12;13.00;;;6.80;;
74044;SDS011;62389;51.412;5.436;2022-12-07T02:07:39;10.45;;;7.55;;
74044;SDS011;62389;51.412;5.436;2022-12-07T02:12:44;12.05;;;6.88;;
74044;SDS011;62389;51.412;5.436;2022-12-07T02:15:13;9.00;;;6.53;;
74044;SDS011;62389;51.412;5.436;2022-12-07T02:20:21;12.52;;;7.55;;
74044;SDS011;62389;51.412;5.436;2022-12-07T02:28:29;9.70;;;6.18;;
74044;SDS011;62389;51.412;5.436;2022-12-07T02:30:57;10.95;;;5.88;;
74044;SDS011;62389;51.412;5.436;2022-12-07T02:33:28;9.63;;;6.72;;
74044;SDS011;62389;51.412;5.436;2022-12-07T02:36:06;11.23;;;6.70;;
74044;SDS011;62389;51.412;5.436;2022-12-07T02:41:09;10.37;;;6.67;;
74044;SDS011;62389;51.412;5.436;2022-12-07T02:43:39;11.45;;;6.43;;
74044;SDS011;62389;51.412;5.436;2022-12-07T02:46:16;9.75;;;6.15;;
74044;SDS011;62389;51.412;5.436;2022-12-07T02:48:46;10.43;;;6.28;;
74044;SDS011;62389;51.412;5.436;2022-12-07T02:51:12;8.95;;;5.70;;
74044;SDS011;62389;51.412;5.436;2022-12-07T02:53:42;10.23;;;6.20;;
74044;SDS011;62389;51.412;5.436;2022-12-07T03:01:08;9.82;;;6.40;;
74044;SDS011;62389;51.412;5.436;2022-12-07T03:03:57;10.20;;;6.35;;
74044;SDS011;62389;51.412;5.436;2022-12-07T03:06:42;11.77;;;6.32;;
74044;SDS011;62389;51.412;5.436;2022-12-07T03:09:57;10.43;;;6.20;;
74044;SDS011;62389;51.412;5.436;2022-12-07T03:12:08;11.10;;;6.60;;
74044;SDS011;62389;51.412;5.436;2022-12-07T03:14:40;12.57;;;7.18;;
74044;SDS011;62389;51.412;5.436;2022-12-07T03:17:12;14.23;;;7.32;;
74044;SDS011;62389;51.412;5.436;2022-12-07T03:19:42;10.32;;;7.28;;
74044;SDS011;62389;51.412;5.436;2022-12-07T03:22:11;11.80;;;6.88;;
74044;SDS011;62389;51.412;5.436;2022-12-07T03:24:40;9.98;;;6.75;;
74044;SDS011;62389;51.412;5.436;2022-12-07T03:29:46;12.85;;;6.75;;
74044;SDS011;62389;51.412;5.436;2022-12-07T03:32:19;10.55;;;6.90;;
74044;SDS011;62389;51.412;5.436;2022-12-07T03:34:48;9.50;;;6.57;;
74044;SDS011;62389;51.412;5.436;2022-12-07T03:37:26;12.50;;;7.20;;
74044;SDS011;62389;51.412;5.436;2022-12-07T03:42:29;10.30;;;7.28;;
74044;SDS011;62389;51.412;5.436;2022-12-07T03:44:56;11.50;;;7.18;;
74044;SDS011;62389;51.412;5.436;2022-12-07T03:47:26;12.68;;;7.97;;
74044;SDS011;62389;51.412;5.436;2022-12-07T03:50:02;9.80;;;6.43;;
74044;SDS011;62389;51.412;5.436;2022-12-07T03:55:44;11.23;;;7.25;;
74044;SDS011;62389;51.412;5.436;2022-12-07T03:58:13;9.35;;;5.88;;
74044;SDS011;62389;51.412;5.436;2022-12-07T04:00:42;10.25;;;6.15;;
74044;SDS011;62389;51.412;5.436;2022-12-07T04:03:08;11.13;;;5.85;;
74044;SDS011;62389;51.412;5.436;2022-12-07T04:05:33;10.65;;;5.95;;
74044;SDS011;62389;51.412;5.436;2022-12-07T04:07:59;9.48;;;5.65;;
74044;SDS011;62389;51.412;5.436;2022-12-07T04:10:25;12.48;;;5.45;;
74044;SDS011;62389;51.412;5.436;2022-12-07T04:12:50;9.02;;;4.53;;
74044;SDS011;62389;51.412;5.436;2022-12-07T04:15:15;6.78;;;5.45;;
74044;SDS011;62389;51.412;5.436;2022-12-07T04:17:41;6.88;;;5.15;;
74044;SDS011;62389;51.412;5.436;2022-12-07T04:20:06;11.80;;;5.07;;
74044;SDS011;62389;51.412;5.436;2022-12-07T04:22:33;8.02;;;4.78;;
74044;SDS011;62389;51.412;5.436;2022-12-07T04:24:58;8.68;;;4.45;;
74044;SDS011;62389;51.412;5.436;2022-12-07T04:27:24;6.50;;;4.30;;
74044;SDS011;62389;51.412;5.436;2022-12-07T04:29:49;7.57;;;4.50;;
74044;SDS011;62389;51.412;5.436;2022-12-07T04:32:14;9.38;;;5.07;;
74044;SDS011;62389;51.412;5.436;2022-12-07T04:34:40;10.65;;;6.35;;
74044;SDS011;62389;51.412;5.436;2022-12-07T04:37:05;10.82;;;6.07;;
74044;SDS011;62389;51.412;5.436;2022-12-07T04:39:31;10.77;;;6.43;;
74044;SDS011;62389;51.412;5.436;2022-12-07T04:41:57;9.55;;;5.70;;
74044;SDS011;62389;51.412;5.436;2022-12-07T04:44:23;10.68;;;5.80;;
74044;SDS011;62389;51.412;5.436;2022-12-07T04:46:50;11.43;;;6.53;;
74044;SDS011;62389;51.412;5.436;2022-12-07T04:49:15;9.43;;;6.22;;
74044;SDS011;62389;51.412;5.436;2022-12-07T04:51:41;8.80;;;5.50;;
74044;SDS011;62389;51.412;5.436;2022-12-07T04:54:07;9.02;;;4.80;;
74044;SDS011;62389;51.412;5.436;2022-12-07T04:56:33;6.78;;;4.32;;
74044;SDS011;62389;51.412;5.436;2022-12-07T04:59:00;8.70;;;5.38;;
74044;SDS011;62389;51.412;5.436;2022-12-07T05:01:26;14.65;;;6.38;;
74044;SDS011;62389;51.412;5.436;2022-12-07T05:03:51;12.75;;;6.32;;
74044;SDS011;62389;51.412;5.436;2022-12-07T05:06:17;11.95;;;6.20;;
74044;SDS011;62389;51.412;5.436;2022-12-07T05:08:42;7.57;;;5.38;;
74044;SDS011;62389;51.412;5.436;2022-12-07T05:11:08;9.35;;;5.07;;
74044;SDS011;62389;51.412;5.436;2022-12-07T05:13:35;7.55;;;5.32;;
74044;SDS011;62389;51.412;5.436;2022-12-07T05:16:01;8.45;;;5.35;;
74044;SDS011;62389;51.412;5.436;2022-12-07T05:18:27;15.00;;;6.60;;
74044;SDS011;62389;51.412;5.436;2022-12-07T05:20:52;14.48;;;7.25;;
74044;SDS011;62389;51.412;5.436;2022-12-07T05:23:18;8.18;;;4.85;;
74044;SDS011;62389;51.412;5.436;2022-12-07T05:25:44;8.80;;;4.78;;
74044;SDS011;62389;51.412;5.436;2022-12-07T05:28:09;12.70;;;4.68;;
74044;SDS011;62389;51.412;5.436;2022-12-07T05:30:35;6.75;;;5.00;;
74044;SDS011;62389;51.412;5.436;2022-12-07T05:33:00;6.32;;;4.28;;
74044;SDS011;62389;51.412;5.436;2022-12-07T05:35:26;8.48;;;4.22;;
74044;SDS011;62389;51.412;5.436;2022-12-07T05:37:51;6.13;;;3.92;;
74044;SDS011;62389;51.412;5.436;2022-12-07T05:40:16;6.15;;;3.83;;
74044;SDS011;62389;51.412;5.436;2022-12-07T05:42:43;6.57;;;4.78;;
74044;SDS011;62389;51.412;5.436;2022-12-07T05:45:09;8.38;;;4.97;;
74044;SDS011;62389;51.412;5.436;2022-12-07T05:47:36;5.78;;;4.35;;
74044;SDS011;62389;51.412;5.436;2022-12-07T05:50:02;8.88;;;4.38;;
74044;SDS011;62389;51.412;5.436;2022-12-07T05:52:29;8.88;;;4.50;;
74044;SDS011;62389;51.412;5.436;2022-12-07T05:54:54;6.97;;;3.40;;
74044;SDS011;62389;51.412;5.436;2022-12-07T05:57:19;9.07;;;4.13;;
74044;SDS011;62389;51.412;5.436;2022-12-07T05:59:45;6.57;;;3.40;;
74044;SDS011;62389;51.412;5.436;2022-12-07T06:02:11;4.65;;;3.17;;
74044;SDS011;62389;51.412;5.436;2022-12-07T06:04:40;6.70;;;3.65;;
74044;SDS011;62389;51.412;5.436;2022-12-07T06:07:07;5.32;;;3.30;;
74044;SDS011;62389;51.412;5.436;2022-12-07T06:09:34;5.93;;;3.85;;
74044;SDS011;62389;51.412;5.436;2022-12-07T06:12:00;8.48;;;3.80;;
74044;SDS011;62389;51.412;5.436;2022-12-07T06:14:45;6.47;;;3.72;;
74044;SDS011;62389;51.412;5.436;2022-12-07T06:17:11;6.43;;;3.53;;
74044;SDS011;62389;51.412;5.436;2022-12-07T06:19:37;6.70;;;3.67;;
74044;SDS011;62389;51.412;5.436;2022-12-07T06:22:03;10.07;;;3.72;;
74044;SDS011;62389;51.412;5.436;2022-12-07T06:24:29;8.20;;;4.15;;
74044;SDS011;62389;51.412;5.436;2022-12-07T06:26:58;13.32;;;4.60;;
74044;SDS011;62389;51.412;5.436;2022-12-07T06:29:24;5.97;;;4.53;;
74044;SDS011;62389;51.412;5.436;2022-12-07T06:31:49;10.75;;;4.85;;
74044;SDS011;62389;51.412;5.436;2022-12-07T06:34:16;7.50;;;5.20;;
74044;SDS011;62389;51.412;5.436;2022-12-07T06:36:43;6.72;;;4.07;;
74044;SDS011;62389;51.412;5.436;2022-12-07T06:39:09;9.02;;;5.22;;
74044;SDS011;62389;51.412;5.436;2022-12-07T06:41:35;8.52;;;4.68;;
74044;SDS011;62389;51.412;5.436;2022-12-07T06:44:02;8.45;;;5.22;;
74044;SDS011;62389;51.412;5.436;2022-12-07T06:46:28;11.10;;;5.80;;
74044;SDS011;62389;51.412;5.436;2022-12-07T06:48:53;12.30;;;5.43;;
74044;SDS011;62389;51.412;5.436;2022-12-07T06:51:19;12.98;;;6.43;;
74044;SDS011;62389;51.412;5.436;2022-12-07T06:53:44;13.32;;;6.53;;
74044;SDS011;62389;51.412;5.436;2022-12-07T06:56:10;11.68;;;6.97;;
74044;SDS011;62389;51.412;5.436;2022-12-07T06:58:35;10.57;;;7.13;;
74044;SDS011;62389;51.412;5.436;2022-12-07T07:01:01;10.95;;;7.30;;
74044;SDS011;62389;51.412;5.436;2022-12-07T07:03:26;12.77;;;7.35;;
74044;SDS011;62389;51.412;5.436;2022-12-07T07:05:52;16.02;;;7.40;;
74044;SDS011;62389;51.412;5.436;2022-12-07T07:08:17;11.07;;;7.57;;
74044;SDS011;62389;51.412;5.436;2022-12-07T07:10:42;13.15;;;6.72;;
74044;SDS011;62389;51.412;5.436;2022-12-07T07:13:08;16.73;;;9.68;;
74044;SDS011;62389;51.412;5.436;2022-12-07T07:15:33;10.52;;;7.07;;
74044;SDS011;62389;51.412;5.436;2022-12-07T07:17:59;14.23;;;7.72;;
74044;SDS011;62389;51.412;5.436;2022-12-07T07:20:25;13.75;;;8.93;;
74044;SDS011;62389;51.412;5.436;2022-12-07T07:22:53;12.80;;;7.53;;
74044;SDS011;62389;51.412;5.436;2022-12-07T07:25:19;13.00;;;7.25;;
74044;SDS011;62389;51.412;5.436;2022-12-07T07:27:45;14.35;;;7.53;;
74044;SDS011;62389;51.412;5.436;2022-12-07T07:30:10;14.20;;;8.02;;
74044;SDS011;62389;51.412;5.436;2022-12-07T07:32:36;16.98;;;7.80;;
74044;SDS011;62389;51.412;5.436;2022-12-07T07:35:01;11.90;;;7.70;;
74044;SDS011;62389;51.412;5.436;2022-12-07T07:37:27;15.70;;;8.02;;
74044;SDS011;62389;51.412;5.436;2022-12-07T07:39:52;13.40;;;7.60;;
74044;SDS011;62389;51.412;5.436;2022-12-07T07:42:17;11.88;;;7.93;;
74044;SDS011;62389;51.412;5.436;2022-12-07T07:44:43;12.63;;;7.95;;
74044;SDS011;62389;51.412;5.436;2022-12-07T07:47:08;16.13;;;8.32;;
74044;SDS011;62389;51.412;5.436;2022-12-07T07:49:34;14.35;;;7.65;;
74044;SDS011;62389;51.412;5.436;2022-12-07T07:51:59;17.20;;;8.00;;
74044;SDS011;62389;51.412;5.436;2022-12-07T07:54:25;14.13;;;8.23;;
74044;SDS011;62389;51.412;5.436;2022-12-07T07:56:50;12.60;;;8.25;;
74044;SDS011;62389;51.412;5.436;2022-12-07T07:59:15;14.27;;;8.88;;
74044;SDS011;62389;51.412;5.436;2022-12-07T08:01:41;15.52;;;8.73;;
74044;SDS011;62389;51.412;5.436;2022-12-07T08:04:06;15.02;;;8.27;;
74044;SDS011;62389;51.412;5.436;2022-12-07T08:06:31;14.82;;;8.02;;
74044;SDS011;62389;51.412;5.436;2022-12-07T08:08:57;20.08;;;8.85;;
74044;SDS011;62389;51.412;5.436;2022-12-07T08:11:23;17.25;;;7.97;;
74044;SDS011;62389;51.412;5.436;2022-12-07T08:13:48;13.32;;;7.60;;
74044;SDS011;62389;51.412;5.436;2022-12-07T08:16:14;16.88;;;7.82;;
74044;SDS011;62389;51.412;5.436;2022-12-07T08:18:40;17.92;;;8.45;;
74044;SDS011;62389;51.412;5.436;2022-12-07T08:21:07;13.13;;;7.15;;
74044;SDS011;62389;51.412;5.436;2022-12-07T08:23:36;13.52;;;7.40;;
74044;SDS011;62389;51.412;5.436;2022-12-07T08:26:05;12.50;;;7.55;;
74044;SDS011;62389;51.412;5.436;2022-12-07T08:28:32;12.63;;;7.40;;
74044;SDS011;62389;51.412;5.436;2022-12-07T08:31:01;16.77;;;7.55;;
74044;SDS011;62389;51.412;5.436;2022-12-07T08:33:28;12.93;;;7.60;;
74044;SDS011;62389;51.412;5.436;2022-12-07T08:35:54;14.45;;;8.00;;
74044;SDS011;62389;51.412;5.436;2022-12-07T08:38:19;15.15;;;8.27;;
74044;SDS011;62389;51.412;5.436;2022-12-07T08:40:44;13.77;;;7.57;;
74044;SDS011;62389;51.412;5.436;2022-12-07T08:43:10;16.55;;;9.55;;
74044;SDS011;62389;51.412;5.436;2022-12-07T08:45:35;19.15;;;10.30;;
74044;SDS011;62389;51.412;5.436;2022-12-07T08:50:29;18.95;;;9.10;;
74044;SDS011;62389;51.412;5.436;2022-12-07T08:52:55;17.40;;;8.85;;
74044;SDS011;62389;51.412;5.436;2022-12-07T08:55:23;15.57;;;8.55;;
74044;SDS011;62389;51.412;5.436;2022-12-07T08:57:48;13.95;;;9.00;;
74044;SDS011;62389;51.412;5.436;2022-12-07T09:00:15;13.18;;;7.78;;
74044;SDS011;62389;51.412;5.436;2022-12-07T09:02:42;13.80;;;6.90;;
74044;SDS011;62389;51.412;5.436;2022-12-07T09:05:09;12.60;;;7.28;;
74044;SDS011;62389;51.412;5.436;2022-12-07T09:07:34;14.25;;;7.43;;
74044;SDS011;62389;51.412;5.436;2022-12-07T09:10:00;15.27;;;7.32;;
74044;SDS011;62389;51.412;5.436;2022-12-07T09:12:26;13.25;;;6.50;;
74044;SDS011;62389;51.412;5.436;2022-12-07T09:14:51;18.17;;;8.60;;
74044;SDS011;62389;51.412;5.436;2022-12-07T09:17:17;14.63;;;8.30;;
74044;SDS011;62389;51.412;5.436;2022-12-07T09:19:42;15.70;;;7.95;;
74044;SDS011;62389;51.412;5.436;2022-12-07T09:22:08;18.40;;;8.90;;
74044;SDS011;62389;51.412;5.436;2022-12-07T09:24:33;13.98;;;8.35;;
74044;SDS011;62389;51.412;5.436;2022-12-07T09:26:59;15.48;;;8.30;;
74044;SDS011;62389;51.412;5.436;2022-12-07T09:29:24;12.93;;;8.02;;
74044;SDS011;62389;51.412;5.436;2022-12-07T09:31:53;15.43;;;6.85;;
74044;SDS011;62389;51.412;5.436;2022-12-07T09:34:18;16.77;;;7.40;;
74044;SDS011;62389;51.412;5.436;2022-12-07T09:36:45;14.73;;;8.27;;
74044;SDS011;62389;51.412;5.436;2022-12-07T09:39:11;11.85;;;6.57;;
74044;SDS011;62389;51.412;5.436;2022-12-07T09:41:40;10.57;;;5.57;;
74044;SDS011;62389;51.412;5.436;2022-12-07T09:44:10;8.80;;;4.97;;
74044;SDS011;62389;51.412;5.436;2022-12-07T09:46:39;12.18;;;5.38;;
74044;SDS011;62389;51.412;5.436;2022-12-07T09:49:14;11.93;;;6.43;;
74044;SDS011;62389;51.412;5.436;2022-12-07T09:51:42;12.15;;;5.30;;
74044;SDS011;62389;51.412;5.436;2022-12-07T09:54:09;13.70;;;5.72;;
74044;SDS011;62389;51.412;5.436;2022-12-07T09:56:38;8.50;;;5.38;;
74044;SDS011;62389;51.412;5.436;2022-12-07T09:59:04;11.10;;;5.90;;
74044;SDS011;62389;51.412;5.436;2022-12-07T10:01:30;9.80;;;5.68;;
74044;SDS011;62389;51.412;5.436;2022-12-07T10:04:11;12.68;;;7.32;;
74044;SDS011;62389;51.412;5.436;2022-12-07T10:06:42;12.00;;;5.88;;
74044;SDS011;62389;51.412;5.436;2022-12-07T10:09:17;12.38;;;6.25;;
74044;SDS011;62389;51.412;5.436;2022-12-07T10:14:30;14.57;;;5.35;;
74044;SDS011;62389;51.412;5.436;2022-12-07T10:16:57;12.05;;;5.68;;
74044;SDS011;62389;51.412;5.436;2022-12-07T10:19:29;10.48;;;5.30;;
74044;SDS011;62389;51.412;5.436;2022-12-07T10:22:03;7.40;;;4.60;;
74044;SDS011;62389;51.412;5.436;2022-12-07T10:24:29;9.80;;;5.45;;
74044;SDS011;62389;51.412;5.436;2022-12-07T10:26:54;10.07;;;4.68;;
74044;SDS011;62389;51.412;5.436;2022-12-07T10:34:29;15.20;;;4.90;;
74044;SDS011;62389;51.412;5.436;2022-12-07T10:39:44;9.57;;;4.93;;
74044;SDS011;62389;51.412;5.436;2022-12-07T10:42:27;10.68;;;4.30;;
74044;SDS011;62389;51.412;5.436;2022-12-07T10:45:08;6.50;;;4.50;;
74044;SDS011;62389;51.412;5.436;2022-12-07T10:50:52;11.75;;;4.30;;
74044;SDS011;62389;51.412;5.436;2022-12-07T10:53:50;8.38;;;4.07;;
74044;SDS011;62389;51.412;5.436;2022-12-07T11:04:36;6.40;;;4.03;;
74044;SDS011;62389;51.412;5.436;2022-12-07T11:12:56;10.55;;;4.65;;
74044;SDS011;62389;51.412;5.436;2022-12-07T11:34:02;6.30;;;3.42;;
74044;SDS011;62389;51.412;5.436;2022-12-07T11:36:41;7.65;;;3.28;;
74044;SDS011;62389;51.412;5.436;2022-12-07T11:39:30;9.43;;;4.25;;
74044;SDS011;62389;51.412;5.436;2022-12-07T11:42:01;8.43;;;3.13;;
74044;SDS011;62389;51.412;5.436;2022-12-07T11:49:53;7.65;;;2.70;;
74044;SDS011;62389;51.412;5.436;2022-12-07T11:52:40;5.45;;;2.38;;
74044;SDS011;62389;51.412;5.436;2022-12-07T11:55:16;5.60;;;2.53;;
74044;SDS011;62389;51.412;5.436;2022-12-07T11:58:05;5.25;;;2.40;;
74044;SDS011;62389;51.412;5.436;2022-12-07T12:00:47;8.68;;;2.80;;
74044;SDS011;62389;51.412;5.436;2022-12-07T12:03:20;8.05;;;2.83;;
74044;SDS011;62389;51.412;5.436;2022-12-07T12:05:55;6.32;;;2.50;;
74044;SDS011;62389;51.412;5.436;2022-12-07T12:08:23;4.85;;;2.35;;
74044;SDS011;62389;51.412;5.436;2022-12-07T12:22:21;5.10;;;1.95;;
74044;SDS011;62389;51.412;5.436;2022-12-07T12:24:52;5.47;;;1.95;;
74044;SDS011;62389;51.412;5.436;2022-12-07T12:27:30;7.50;;;1.70;;
74044;SDS011;62389;51.412;5.436;2022-12-07T12:29:59;4.03;;;1.73;;
74044;SDS011;62389;51.412;5.436;2022-12-07T12:35:20;5.20;;;2.10;;
74044;SDS011;62389;51.412;5.436;2022-12-07T12:37:48;3.38;;;1.83;;
74044;SDS011;62389;51.412;5.436;2022-12-07T12:42:49;3.30;;;2.20;;
74044;SDS011;62389;51.412;5.436;2022-12-07T12:45:20;5.60;;;2.00;;
74044;SDS011;62389;51.412;5.436;2022-12-07T12:50:24;4.82;;;1.83;;
74044;SDS011;62389;51.412;5.436;2022-12-07T12:53:35;5.78;;;2.33;;
74044;SDS011;62389;51.412;5.436;2022-12-07T12:55:50;3.95;;;1.92;;
74044;SDS011;62389;51.412;5.436;2022-12-07T12:58:35;4.63;;;1.42;;
74044;SDS011;62389;51.412;5.436;2022-12-07T13:01:45;5.32;;;1.30;;
74044;SDS011;62389;51.412;5.436;2022-12-07T13:08:54;7.50;;;1.42;;
74044;SDS011;62389;51.412;5.436;2022-12-07T13:11:44;5.47;;;1.33;;
74044;SDS011;62389;51.412;5.436;2022-12-07T13:17:08;4.25;;;1.75;;
74044;SDS011;62389;51.412;5.436;2022-12-07T13:20:04;3.22;;;1.38;;
74044;SDS011;62389;51.412;5.436;2022-12-07T13:27:47;3.33;;;1.90;;
74044;SDS011;62389;51.412;5.436;2022-12-07T13:30:20;4.78;;;1.60;;
74044;SDS011;62389;51.412;5.436;2022-12-07T13:32:51;5.75;;;1.67;;
74044;SDS011;62389;51.412;5.436;2022-12-07T13:35:32;5.13;;;1.92;;
74044;SDS011;62389;51.412;5.436;2022-12-07T13:37:58;3.90;;;1.98;;
74044;SDS011;62389;51.412;5.436;2022-12-07T13:40:24;5.15;;;1.55;;
74044;SDS011;62389;51.412;5.436;2022-12-07T13:43:03;3.70;;;1.90;;
74044;SDS011;62389;51.412;5.436;2022-12-07T13:45:37;4.93;;;2.10;;
74044;SDS011;62389;51.412;5.436;2022-12-07T13:51:00;3.67;;;1.90;;
74044;SDS011;62389;51.412;5.436;2022-12-07T13:53:27;2.97;;;2.05;;
74044;SDS011;62389;51.412;5.436;2022-12-07T13:55:55;5.20;;;2.70;;
74044;SDS011;62389;51.412;5.436;2022-12-07T13:58:23;8.10;;;3.10;;
74044;SDS011;62389;51.412;5.436;2022-12-07T14:00:49;6.28;;;3.00;;
74044;SDS011;62389;51.412;5.436;2022-12-07T14:05:41;11.57;;;3.80;;
74044;SDS011;62389;51.412;5.436;2022-12-07T14:10:37;6.95;;;2.80;;
74044;SDS011;62389;51.412;5.436;2022-12-07T14:15:55;6.82;;;3.33;;
74044;SDS011;62389;51.412;5.436;2022-12-07T14:23:36;5.82;;;2.35;;
74044;SDS011;62389;51.412;5.436;2022-12-07T14:28:43;4.90;;;2.30;;
74044;SDS011;62389;51.412;5.436;2022-12-07T14:31:21;5.00;;;2.28;;
74044;SDS011;62389;51.412;5.436;2022-12-07T14:33:49;7.55;;;2.53;;
74044;SDS011;62389;51.412;5.436;2022-12-07T14:36:15;5.68;;;2.42;;
74044;SDS011;62389;51.412;5.436;2022-12-07T14:38:41;5.03;;;2.55;;
74044;SDS011;62389;51.412;5.436;2022-12-07T14:41:10;5.65;;;2.78;;
74044;SDS011;62389;51.412;5.436;2022-12-07T14:43:58;5.50;;;2.58;;
74044;SDS011;62389;51.412;5.436;2022-12-07T14:46:24;5.70;;;2.67;;
74044;SDS011;62389;51.412;5.436;2022-12-07T14:48:50;5.63;;;2.47;;
74044;SDS011;62389;51.412;5.436;2022-12-07T14:51:15;5.88;;;2.40;;
74044;SDS011;62389;51.412;5.436;2022-12-07T14:53:42;7.07;;;2.58;;
74044;SDS011;62389;51.412;5.436;2022-12-07T14:56:11;3.92;;;2.17;;
74044;SDS011;62389;51.412;5.436;2022-12-07T14:58:36;5.65;;;2.20;;
74044;SDS011;62389;51.412;5.436;2022-12-07T15:01:02;5.50;;;2.80;;
74044;SDS011;62389;51.412;5.436;2022-12-07T15:03:27;5.03;;;2.72;;
74044;SDS011;62389;51.412;5.436;2022-12-07T15:05:53;8.02;;;2.42;;
74044;SDS011;62389;51.412;5.436;2022-12-07T15:08:18;6.10;;;2.75;;
74044;SDS011;62389;51.412;5.436;2022-12-07T15:10:44;6.60;;;2.42;;
74044;SDS011;62389;51.412;5.436;2022-12-07T15:13:09;5.53;;;2.80;;
74044;SDS011;62389;51.412;5.436;2022-12-07T15:15:53;5.43;;;2.95;;
74044;SDS011;62389;51.412;5.436;2022-12-07T15:18:20;5.00;;;2.45;;
74044;SDS011;62389;51.412;5.436;2022-12-07T15:23:12;4.55;;;2.10;;
74044;SDS011;62389;51.412;5.436;2022-12-07T15:25:45;7.75;;;2.20;;
74044;SDS011;62389;51.412;5.436;2022-12-07T15:28:12;5.55;;;2.85;;
74044;SDS011;62389;51.412;5.436;2022-12-07T15:30:38;5.65;;;2.47;;
74044;SDS011;62389;51.412;5.436;2022-12-07T15:33:04;6.13;;;2.60;;
74044;SDS011;62389;51.412;5.436;2022-12-07T15:35:29;8.38;;;2.50;;
74044;SDS011;62389;51.412;5.436;2022-12-07T15:37:55;9.20;;;2.33;;
74044;SDS011;62389;51.412;5.436;2022-12-07T15:40:20;4.88;;;2.13;;
74044;SDS011;62389;51.412;5.436;2022-12-07T15:42:46;6.60;;;2.63;;
74044;SDS011;62389;51.412;5.436;2022-12-07T15:45:11;6.18;;;2.42;;
74044;SDS011;62389;51.412;5.436;2022-12-07T15:47:39;3.28;;;2.15;;
74044;SDS011;62389;51.412;5.436;2022-12-07T15:50:07;5.85;;;3.10;;
74044;SDS011;62389;51.412;5.436;2022-12-07T15:52:35;4.70;;;3.30;;
74044;SDS011;62389;51.412;5.436;2022-12-07T15:55:00;4.88;;;3.45;;
74044;SDS011;62389;51.412;5.436;2022-12-07T15:57:28;5.10;;;3.30;;
74044;SDS011;62389;51.412;5.436;2022-12-07T15:59:57;6.25;;;3.88;;
74044;SDS011;62389;51.412;5.436;2022-12-07T16:02:23;5.88;;;4.00;;
74044;SDS011;62389;51.412;5.436;2022-12-07T16:04:49;7.70;;;4.35;;
74044;SDS011;62389;51.412;5.436;2022-12-07T16:07:15;6.43;;;3.88;;
74044;SDS011;62389;51.412;5.436;2022-12-07T16:09:42;6.80;;;3.88;;
74044;SDS011;62389;51.412;5.436;2022-12-07T16:12:08;7.00;;;4.05;;
74044;SDS011;62389;51.412;5.436;2022-12-07T16:14:34;6.85;;;3.40;;
74044;SDS011;62389;51.412;5.436;2022-12-07T16:16:59;6.95;;;3.80;;
74044;SDS011;62389;51.412;5.436;2022-12-07T16:19:25;6.45;;;2.90;;
74044;SDS011;62389;51.412;5.436;2022-12-07T16:21:50;6.00;;;2.70;;
74044;SDS011;62389;51.412;5.436;2022-12-07T16:24:16;3.97;;;2.67;;
74044;SDS011;62389;51.412;5.436;2022-12-07T16:26:41;6.15;;;2.95;;
74044;SDS011;62389;51.412;5.436;2022-12-07T16:29:10;5.10;;;3.00;;
74044;SDS011;62389;51.412;5.436;2022-12-07T16:31:36;5.78;;;3.35;;
74044;SDS011;62389;51.412;5.436;2022-12-07T16:34:02;9.70;;;3.83;;
74044;SDS011;62389;51.412;5.436;2022-12-07T16:36:27;6.97;;;4.47;;
74044;SDS011;62389;51.412;5.436;2022-12-07T16:38:52;8.90;;;4.15;;
74044;SDS011;62389;51.412;5.436;2022-12-07T16:41:18;6.32;;;4.15;;
74044;SDS011;62389;51.412;5.436;2022-12-07T16:43:43;8.40;;;4.55;;
74044;SDS011;62389;51.412;5.436;2022-12-07T16:46:09;8.50;;;4.20;;
74044;SDS011;62389;51.412;5.436;2022-12-07T16:48:38;6.10;;;3.28;;
74044;SDS011;62389;51.412;5.436;2022-12-07T16:51:05;7.05;;;3.80;;
74044;SDS011;62389;51.412;5.436;2022-12-07T16:53:35;8.80;;;3.63;;
74044;SDS011;62389;51.412;5.436;2022-12-07T16:56:01;9.10;;;5.00;;
74044;SDS011;62389;51.412;5.436;2022-12-07T16:58:27;6.35;;;3.20;;
74044;SDS011;62389;51.412;5.436;2022-12-07T17:00:53;6.07;;;3.13;;
74044;SDS011;62389;51.412;5.436;2022-12-07T17:03:19;5.95;;;3.10;;
74044;SDS011;62389;51.412;5.436;2022-12-07T17:05:44;5.57;;;2.80;;
74044;SDS011;62389;51.412;5.436;2022-12-07T17:08:11;5.68;;;2.88;;